Terminal Aerodrome Forecast
Issued by NWS Tampa Bay Area, FL

Home | Current Version | Previous Version | Text Only | Print | Product List | Glossary On
Versions: 1 2 3 4 5 6 7 8 9 10 11 12 13 14 15 16 17
000
FTUS42 KTBW 212328
TAFFMY
TAF
KFMY 212328Z 2200/2224 09006KT P6SM FEW060 FEW250
     FM220300 06005KT P6SM SCT250
     FM221400 07008KT P6SM SCT025 SCT250
     FM221800 06008KT P6SM VCTS SCT040CB SCT100 SCT250=

USA.gov is the U.S. government's official web portal to all federal, state and local government web resources and services.